Time;durP1;ratioP1;P1;durP2;ratioP2;P2;SDS_P1;SDS_P2;PMS_P1;PMS_P2;Temp;Humidity;BMP_temperature;BMP_pressure;BME280_temperature;BME280_humidity;BME280_pressure;Samples;Min_cycle;Max_cycle;Signal;HPM_P1;HPM_P2
2023/06/20 00:04:27;;;;;;;21.8;17.1;;;;;;;15.11;83.42;;;;;
2023/06/20 00:15:27;;;;;;;20;16.6;;;;;;;15.06;83.61;;;;;
2023/06/20 00:25:27;;;;;;;20;16.6;;;;;;;14.99;83.76;;;;;
2023/06/20 00:36:27;;;;;;;20;16.6;;;;;;;14.88;83.97;;;;;
2023/06/20 00:46:27;;;;;;;15.3;13.6;;;;;;;14.89;83.7;;;;;
2023/06/20 00:57:27;;;;;;;15.3;13.6;;;;;;;14.83;83.34;;;;;
2023/06/20 01:08:27;;;;;;;15.3;13.6;;;;;;;14.68;82.84;;;;;
2023/06/20 01:19:28;;;;;;;19.3;15.1;;;;;;;14.5;83.54;;;;;
2023/06/20 01:29:27;;;;;;;19.3;15.1;;;;;;;14.33;82.73;;;;;
2023/06/20 01:40:27;;;;;;;20.5;15.8;;;;;;;14.14;83.62;;;;;
2023/06/20 01:50:27;;;;;;;20.5;15.8;;;;;;;14.02;84.28;;;;;
2023/06/20 02:00:27;;;;;;;20.5;15.8;;;;;;;13.97;86.18;;;;;
2023/06/20 02:11:27;;;;;;;20.1;14.8;;;;;;;13.85;85.96;;;;;
2023/06/20 02:21:27;;;;;;;20.1;14.8;;;;;;;13.87;85.41;;;;;
2023/06/20 02:32:27;;;;;;;20.1;14.8;;;;;;;13.87;85.16;;;;;
2023/06/20 02:42:27;;;;;;;20.3;16.4;;;;;;;13.83;86;;;;;
2023/06/20 02:52:30;;;;;;;20.3;16.4;;;;;;;13.95;87.4;;;;;
2023/06/20 03:03:30;;;;;;;20.3;16.4;;;;;;;14.06;87.49;;;;;
2023/06/20 03:13:30;;;;;;;21.8;17.2;;;;;;;14.11;87.53;;;;;
2023/06/20 03:23:30;;;;;;;21.8;17.2;;;;;;;14.35;86.66;;;;;
2023/06/20 03:34:30;;;;;;;21.8;17.2;;;;;;;14.64;85.82;;;;;
2023/06/20 03:44:30;;;;;;;21.5;18.5;;;;;;;14.85;85.63;;;;;
2023/06/20 03:54:30;;;;;;;21.5;18.5;;;;;;;15.14;85.89;;;;;
2023/06/20 04:05:30;;;;;;;21.5;18.5;;;;;;;15.54;85.26;;;;;
2023/06/20 04:15:30;;;;;;;18.9;15.6;;;;;;;15.93;84.51;;;;;
2023/06/20 04:25:30;;;;;;;18.9;15.6;;;;;;;16.41;84.25;;;;;
2023/06/20 04:35:31;;;;;;;18.9;15.6;;;;;;;17.08;82.92;;;;;
2023/06/20 04:46:30;;;;;;;20.7;16.9;;;;;;;17.85;80.86;;;;;
2023/06/20 04:57:30;;;;;;;20.7;16.9;;;;;;;18.43;78.34;;;;;
2023/06/20 05:07:30;;;;;;;20.7;16.9;;;;;;;18.99;76.99;;;;;
2023/06/20 05:17:30;;;;;;;20;15.1;;;;;;;19.45;75.7;;;;;
2023/06/20 05:27:30;;;;;;;20;15.1;;;;;;;19.77;74.33;;;;;
2023/06/20 05:37:30;;;;;;;20;15.1;;;;;;;19.99;72.56;;;;;
2023/06/20 05:47:30;;;;;;;19.5;15.8;;;;;;;20.37;70.42;;;;;
2023/06/20 05:58:30;;;;;;;19.5;15.8;;;;;;;20.93;68.77;;;;;
2023/06/20 06:08:30;;;;;;;19.5;15.8;;;;;;;21.36;67.61;;;;;
2023/06/20 06:18:30;;;;;;;20.8;15.4;;;;;;;21.69;64.56;;;;;
2023/06/20 06:29:30;;;;;;;20.8;15.4;;;;;;;22.11;64.28;;;;;
2023/06/20 06:40:30;;;;;;;17.9;13.1;;;;;;;22.64;63.34;;;;;
2023/06/20 06:50:30;;;;;;;17.9;13.1;;;;;;;23.11;61.49;;;;;
2023/06/20 07:00:30;;;;;;;17.9;13.1;;;;;;;23.53;58.8;;;;;
2023/06/20 07:10:30;;;;;;;12.1;8.9;;;;;;;24.01;57.89;;;;;
2023/06/20 07:21:30;;;;;;;12.1;8.9;;;;;;;24.48;55.5;;;;;
2023/06/20 07:31:30;;;;;;;12.1;8.9;;;;;;;24.58;52.68;;;;;
2023/06/20 07:41:30;;;;;;;10.2;8.2;;;;;;;25.17;55.39;;;;;
2023/06/20 07:52:32;;;;;;;10.2;8.2;;;;;;;25.61;51.94;;;;;
2023/06/20 08:02:31;;;;;;;10.2;8.2;;;;;;;25.94;51.82;;;;;
2023/06/20 08:12:30;;;;;;;9.7;6.8;;;;;;;26.16;50.84;;;;;
2023/06/20 08:22:30;;;;;;;9.7;6.8;;;;;;;26.45;48.02;;;;;
2023/06/20 08:33:30;;;;;;;9.7;6.8;;;;;;;27.07;46.4;;;;;
2023/06/20 08:43:30;;;;;;;16.3;7.5;;;;;;;27.27;44.19;;;;;
2023/06/20 08:53:30;;;;;;;16.3;7.5;;;;;;;27.49;39.61;;;;;
2023/06/20 09:03:30;;;;;;;16.3;7.5;;;;;;;27.71;38.69;;;;;
2023/06/20 09:13:30;;;;;;;7.5;5.3;;;;;;;27.93;37.78;;;;;
2023/06/20 09:23:30;;;;;;;7.5;5.3;;;;;;;28.47;42.35;;;;;
2023/06/20 09:34:30;;;;;;;7.5;5.3;;;;;;;28.57;39.96;;;;;
2023/06/20 09:44:30;;;;;;;11.5;6.1;;;;;;;28.71;39.97;;;;;
2023/06/20 09:54:30;;;;;;;11.5;6.1;;;;;;;28.95;39.99;;;;;
2023/06/20 10:04:30;;;;;;;11.5;6.1;;;;;;;29.16;39.15;;;;;
2023/06/20 10:15:30;;;;;;;8.6;5.7;;;;;;;29.02;40.15;;;;;
2023/06/20 10:25:30;;;;;;;8.6;5.7;;;;;;;29.22;38.03;;;;;
2023/06/20 10:36:30;;;;;;;8.6;5.7;;;;;;;29.22;36.91;;;;;
2023/06/20 10:47:30;;;;;;;8.4;5.8;;;;;;;29.72;36.39;;;;;
2023/06/20 10:58:30;;;;;;;8.4;5.8;;;;;;;29.9;36.48;;;;;
2023/06/20 11:08:30;;;;;;;8.4;5.8;;;;;;;30.28;38.81;;;;;
2023/06/20 11:19:30;;;;;;;7.7;5.9;;;;;;;30.16;37;;;;;
2023/06/20 11:30:30;;;;;;;7.7;5.9;;;;;;;30.67;38.95;;;;;
2023/06/20 11:40:30;;;;;;;9.9;6.6;;;;;;;30.06;35.85;;;;;
2023/06/20 11:51:30;;;;;;;9.9;6.6;;;;;;;30.21;37.05;;;;;
2023/06/20 12:02:30;;;;;;;9.9;6.6;;;;;;;30.66;34.66;;;;;
2023/06/20 12:13:32;;;;;;;8.7;5.5;;;;;;;31.16;33.97;;;;;
2023/06/20 12:24:30;;;;;;;8.7;5.5;;;;;;;31.47;35.45;;;;;
2023/06/20 12:34:30;;;;;;;8.7;5.5;;;;;;;31.5;34.1;;;;;
2023/06/20 12:44:30;;;;;;;9.1;5.7;;;;;;;31.37;33.18;;;;;
2023/06/20 12:54:30;;;;;;;9.1;5.7;;;;;;;32.07;36.19;;;;;
2023/06/20 13:04:30;;;;;;;9.1;5.7;;;;;;;32.57;33.5;;;;;
2023/06/20 13:14:31;;;;;;;7.8;5.6;;;;;;;31.78;34.54;;;;;
2023/06/20 13:25:31;;;;;;;7.8;5.6;;;;;;;31.81;35.01;;;;;
2023/06/20 13:36:32;;;;;;;7.8;5.6;;;;;;;32.16;34.62;;;;;
2023/06/20 13:46:30;;;;;;;8.1;5.5;;;;;;;32.6;32.94;;;;;
2023/06/20 13:57:30;;;;;;;8.1;5.5;;;;;;;33.62;30.61;;;;;
2023/06/20 14:07:32;;;;;;;8.1;5.5;;;;;;;32.93;32.04;;;;;
2023/06/20 14:17:30;;;;;;;7.7;5.4;;;;;;;33.28;34.04;;;;;
2023/06/20 14:28:30;;;;;;;7.7;5.4;;;;;;;33.69;31.3;;;;;
2023/06/20 14:38:30;;;;;;;7.7;5.4;;;;;;;33.85;30.48;;;;;
2023/06/20 14:48:30;;;;;;;11.3;6.3;;;;;;;32.84;34.95;;;;;
2023/06/20 14:59:30;;;;;;;11.3;6.3;;;;;;;31.05;37.34;;;;;
2023/06/20 15:10:30;;;;;;;9.9;5.7;;;;;;;29.65;39.82;;;;;
2023/06/20 15:21:30;;;;;;;9.9;5.7;;;;;;;29.61;41.27;;;;;
2023/06/20 15:31:30;;;;;;;9.9;5.7;;;;;;;30.06;40.82;;;;;
2023/06/20 15:42:30;;;;;;;8.4;5.7;;;;;;;32.26;37.03;;;;;
2023/06/20 15:52:30;;;;;;;8.4;5.7;;;;;;;32.95;37.24;;;;;
2023/06/20 16:02:30;;;;;;;8.4;5.7;;;;;;;33.58;34.85;;;;;
2023/06/20 16:12:30;;;;;;;9.6;5;;;;;;;32.88;35.14;;;;;
2023/06/20 16:22:30;;;;;;;9.6;5;;;;;;;32.27;36.24;;;;;
2023/06/20 16:32:30;;;;;;;9.6;5;;;;;;;31.39;38.03;;;;;
2023/06/20 16:42:30;;;;;;;8.3;4.9;;;;;;;30.01;41.05;;;;;
2023/06/20 16:53:30;;;;;;;8.3;4.9;;;;;;;29.97;41.66;;;;;
2023/06/20 17:03:30;;;;;;;8.3;4.9;;;;;;;29.42;42.62;;;;;
2023/06/20 17:14:30;;;;;;;9.3;6.4;;;;;;;28.93;44.88;;;;;
2023/06/20 17:25:30;;;;;;;9.3;6.4;;;;;;;28.82;46.09;;;;;
2023/06/20 17:35:30;;;;;;;9.3;6.4;;;;;;;28.93;45.65;;;;;
2023/06/20 17:46:30;;;;;;;10.5;7;;;;;;;28.79;45.82;;;;;
2023/06/20 17:56:30;;;;;;;10.5;7;;;;;;;28.06;47.22;;;;;
2023/06/20 18:07:30;;;;;;;10.5;7;;;;;;;27.26;47.96;;;;;
2023/06/20 18:17:30;;;;;;;10.6;6.8;;;;;;;26.57;49.18;;;;;
2023/06/20 18:27:30;;;;;;;10.6;6.8;;;;;;;25.9;50.77;;;;;
2023/06/20 18:37:30;;;;;;;10.6;6.8;;;;;;;25.38;51.86;;;;;
2023/06/20 18:47:30;;;;;;;10.8;7.2;;;;;;;24.83;53.31;;;;;
2023/06/20 18:57:30;;;;;;;10.8;7.2;;;;;;;24.25;55.46;;;;;
2023/06/20 19:07:30;;;;;;;10.8;7.2;;;;;;;23.8;56.13;;;;;
2023/06/20 19:17:30;;;;;;;12.2;9.2;;;;;;;23.44;56.62;;;;;
2023/06/20 19:27:30;;;;;;;12.2;9.2;;;;;;;23;57.03;;;;;
2023/06/20 19:37:30;;;;;;;12.2;9.2;;;;;;;22.71;57.22;;;;;
2023/06/20 19:47:30;;;;;;;11.4;9.2;;;;;;;22.44;57.65;;;;;
2023/06/20 19:57:31;;;;;;;11.4;9.2;;;;;;;22.27;58.31;;;;;
2023/06/20 20:08:30;;;;;;;11.4;9.2;;;;;;;22.2;58.52;;;;;
2023/06/20 20:18:30;;;;;;;11.8;8.7;;;;;;;22.24;58.85;;;;;
2023/06/20 20:28:30;;;;;;;11.8;8.7;;;;;;;22.19;58.59;;;;;
2023/06/20 20:38:30;;;;;;;11.8;8.7;;;;;;;22.06;58.79;;;;;
2023/06/20 20:49:30;;;;;;;10.7;8.4;;;;;;;21.85;58.81;;;;;
2023/06/20 21:00:30;;;;;;;10.7;8.4;;;;;;;21.58;61.64;;;;;
2023/06/20 21:11:30;;;;;;;18.8;14.4;;;;;;;21.24;62.36;;;;;
2023/06/20 21:22:30;;;;;;;18.8;14.4;;;;;;;20.94;64.18;;;;;
2023/06/20 21:33:31;;;;;;;18.8;14.4;;;;;;;20.77;65.48;;;;;
2023/06/20 21:43:33;;;;;;;19.3;15.6;;;;;;;20.52;66.28;;;;;
2023/06/20 21:53:30;;;;;;;19.3;15.6;;;;;;;20.36;67.5;;;;;
2023/06/20 22:04:30;;;;;;;19.3;15.6;;;;;;;20.01;67.25;;;;;
2023/06/20 22:14:30;;;;;;;15.4;13.5;;;;;;;19.76;67.63;;;;;
2023/06/20 22:25:30;;;;;;;15.4;13.5;;;;;;;19.55;68.95;;;;;
2023/06/20 22:36:30;;;;;;;15.4;13.5;;;;;;;19.3;68.84;;;;;
2023/06/20 22:47:30;;;;;;;14.5;10.9;;;;;;;19.15;69.62;;;;;
2023/06/20 22:57:30;;;;;;;14.5;10.9;;;;;;;19.09;69.67;;;;;
2023/06/20 23:08:30;;;;;;;14.5;10.9;;;;;;;18.94;71.3;;;;;
2023/06/20 23:18:30;;;;;;;14.6;11.8;;;;;;;18.9;73.29;;;;;
2023/06/20 23:29:30;;;;;;;14.6;11.8;;;;;;;18.73;73.01;;;;;
2023/06/20 23:40:30;;;;;;;14.3;11.6;;;;;;;18.63;72.86;;;;;
2023/06/20 23:50:30;;;;;;;14.3;11.6;;;;;;;18.55;73.2;;;;;
